sensor_id;sensor_type;location;lat;lon;timestamp;temperature;humidity
68450;SHT30;67758;39.572;2.652;2023-09-12T00:01:30;23.46;81.14
68450;SHT30;67758;39.572;2.652;2023-09-12T00:03:59;23.41;81.27
68450;SHT30;67758;39.572;2.652;2023-09-12T00:06:24;23.32;81.47
68450;SHT30;67758;39.572;2.652;2023-09-12T00:08:51;23.46;81.03
68450;SHT30;67758;39.572;2.652;2023-09-12T00:11:18;23.38;81.42
68450;SHT30;67758;39.572;2.652;2023-09-12T00:13:44;23.33;81.63
68450;SHT30;67758;39.572;2.652;2023-09-12T00:16:10;23.20;81.98
68450;SHT30;67758;39.572;2.652;2023-09-12T00:18:37;23.12;82.32
68450;SHT30;67758;39.572;2.652;2023-09-12T00:21:03;23.01;82.67
68450;SHT30;67758;39.572;2.652;2023-09-12T00:23:29;22.99;82.84
68450;SHT30;67758;39.572;2.652;2023-09-12T00:25:57;22.88;83.13
68450;SHT30;67758;39.572;2.652;2023-09-12T00:28:22;22.85;83.23
68450;SHT30;67758;39.572;2.652;2023-09-12T00:30:48;22.83;83.39
68450;SHT30;67758;39.572;2.652;2023-09-12T00:33:13;22.78;83.55
68450;SHT30;67758;39.572;2.652;2023-09-12T00:35:39;22.71;83.72
68450;SHT30;67758;39.572;2.652;2023-09-12T00:38:05;22.71;83.84
68450;SHT30;67758;39.572;2.652;2023-09-12T00:40:32;22.72;83.85
68450;SHT30;67758;39.572;2.652;2023-09-12T00:42:58;22.74;83.75
68450;SHT30;67758;39.572;2.652;2023-09-12T00:45:24;22.79;83.59
68450;SHT30;67758;39.572;2.652;2023-09-12T00:47:51;22.79;83.61
68450;SHT30;67758;39.572;2.652;2023-09-12T00:50:17;22.81;83.74
68450;SHT30;67758;39.572;2.652;2023-09-12T00:52:44;22.84;83.51
68450;SHT30;67758;39.572;2.652;2023-09-12T00:55:10;22.90;83.49
68450;SHT30;67758;39.572;2.652;2023-09-12T00:57:36;22.92;83.32
68450;SHT30;67758;39.572;2.652;2023-09-12T01:00:03;22.98;83.13
68450;SHT30;67758;39.572;2.652;2023-09-12T01:02:40;22.94;83.30
68450;SHT30;67758;39.572;2.652;2023-09-12T01:05:07;22.99;83.18
68450;SHT30;67758;39.572;2.652;2023-09-12T01:07:33;23.01;83.32
68450;SHT30;67758;39.572;2.652;2023-09-12T01:09:59;23.05;83.00
68450;SHT30;67758;39.572;2.652;2023-09-12T01:12:25;23.12;82.80
68450;SHT30;67758;39.572;2.652;2023-09-12T01:14:50;23.18;82.64
68450;SHT30;67758;39.572;2.652;2023-09-12T01:17:16;23.15;82.61
68450;SHT30;67758;39.572;2.652;2023-09-12T01:19:42;23.16;82.62
68450;SHT30;67758;39.572;2.652;2023-09-12T01:27:48;23.15;82.57
68450;SHT30;67758;39.572;2.652;2023-09-12T01:30:21;23.14;82.59
68450;SHT30;67758;39.572;2.652;2023-09-12T01:32:48;23.15;82.42
68450;SHT30;67758;39.572;2.652;2023-09-12T01:35:14;23.18;82.52
68450;SHT30;67758;39.572;2.652;2023-09-12T01:37:39;23.16;82.46
68450;SHT30;67758;39.572;2.652;2023-09-12T01:40:06;23.12;82.40
68450;SHT30;67758;39.572;2.652;2023-09-12T01:42:43;23.11;82.39
68450;SHT30;67758;39.572;2.652;2023-09-12T01:45:13;23.08;82.54
68450;SHT30;67758;39.572;2.652;2023-09-12T01:47:39;23.09;82.43
68450;SHT30;67758;39.572;2.652;2023-09-12T01:50:08;23.08;82.39
68450;SHT30;67758;39.572;2.652;2023-09-12T01:52:36;23.06;82.38
68450;SHT30;67758;39.572;2.652;2023-09-12T01:55:02;22.99;82.13
68450;SHT30;67758;39.572;2.652;2023-09-12T01:57:29;22.90;81.55
68450;SHT30;67758;39.572;2.652;2023-09-12T01:59:55;22.88;81.12
68450;SHT30;67758;39.572;2.652;2023-09-12T02:02:20;22.84;80.35
68450;SHT30;67758;39.572;2.652;2023-09-12T02:04:52;22.85;80.35
68450;SHT30;67758;39.572;2.652;2023-09-12T02:07:20;22.81;80.13
68450;SHT30;67758;39.572;2.652;2023-09-12T02:09:46;22.78;80.42
68450;SHT30;67758;39.572;2.652;2023-09-12T02:12:12;22.75;80.43
68450;SHT30;67758;39.572;2.652;2023-09-12T02:14:37;22.74;80.51
68450;SHT30;67758;39.572;2.652;2023-09-12T02:17:03;22.67;80.99
68450;SHT30;67758;39.572;2.652;2023-09-12T02:19:28;22.63;81.15
68450;SHT30;67758;39.572;2.652;2023-09-12T02:21:54;22.61;80.99
68450;SHT30;67758;39.572;2.652;2023-09-12T02:24:20;22.60;80.69
68450;SHT30;67758;39.572;2.652;2023-09-12T02:26:47;22.65;79.70
68450;SHT30;67758;39.572;2.652;2023-09-12T02:29:12;22.72;79.14
68450;SHT30;67758;39.572;2.652;2023-09-12T02:31:38;22.85;78.79
68450;SHT30;67758;39.572;2.652;2023-09-12T02:34:04;22.98;78.61
68450;SHT30;67758;39.572;2.652;2023-09-12T02:36:30;22.98;78.28
68450;SHT30;67758;39.572;2.652;2023-09-12T02:38:56;23.06;78.14
68450;SHT30;67758;39.572;2.652;2023-09-12T02:41:22;23.11;77.85
68450;SHT30;67758;39.572;2.652;2023-09-12T02:43:47;23.16;77.53
68450;SHT30;67758;39.572;2.652;2023-09-12T02:46:13;23.23;77.19
68450;SHT30;67758;39.572;2.652;2023-09-12T02:48:39;23.26;76.83
68450;SHT30;67758;39.572;2.652;2023-09-12T02:51:04;23.33;76.66
68450;SHT30;67758;39.572;2.652;2023-09-12T02:53:30;23.42;76.43
68450;SHT30;67758;39.572;2.652;2023-09-12T02:55:55;23.46;76.36
68450;SHT30;67758;39.572;2.652;2023-09-12T02:58:21;23.48;76.26
68450;SHT30;67758;39.572;2.652;2023-09-12T03:00:47;23.53;76.18
68450;SHT30;67758;39.572;2.652;2023-09-12T03:03:15;23.57;76.15
68450;SHT30;67758;39.572;2.652;2023-09-12T03:05:42;23.59;76.17
68450;SHT30;67758;39.572;2.652;2023-09-12T03:08:08;23.60;76.24
68450;SHT30;67758;39.572;2.652;2023-09-12T03:10:33;23.57;76.44
68450;SHT30;67758;39.572;2.652;2023-09-12T03:12:59;23.55;76.62
68450;SHT30;67758;39.572;2.652;2023-09-12T03:15:24;23.52;76.83
68450;SHT30;67758;39.572;2.652;2023-09-12T03:17:50;23.50;77.06
68450;SHT30;67758;39.572;2.652;2023-09-12T03:20:16;23.49;77.16
68450;SHT30;67758;39.572;2.652;2023-09-12T03:22:41;23.43;77.41
68450;SHT30;67758;39.572;2.652;2023-09-12T03:25:07;23.38;77.84
68450;SHT30;67758;39.572;2.652;2023-09-12T03:27:33;23.35;77.92
68450;SHT30;67758;39.572;2.652;2023-09-12T03:29:58;23.28;78.17
68450;SHT30;67758;39.572;2.652;2023-09-12T03:32:24;23.12;78.17
68450;SHT30;67758;39.572;2.652;2023-09-12T03:34:50;23.08;78.42
68450;SHT30;67758;39.572;2.652;2023-09-12T03:37:16;22.94;78.64
68450;SHT30;67758;39.572;2.652;2023-09-12T03:39:41;22.78;79.03
68450;SHT30;67758;39.572;2.652;2023-09-12T03:42:07;22.77;78.95
68450;SHT30;67758;39.572;2.652;2023-09-12T03:44:32;22.71;78.99
68450;SHT30;67758;39.572;2.652;2023-09-12T03:46:58;22.68;78.95
68450;SHT30;67758;39.572;2.652;2023-09-12T03:49:24;22.71;78.84
68450;SHT30;67758;39.572;2.652;2023-09-12T03:51:49;22.74;78.92
68450;SHT30;67758;39.572;2.652;2023-09-12T03:54:15;22.75;78.48
68450;SHT30;67758;39.572;2.652;2023-09-12T03:56:40;22.78;78.38
68450;SHT30;67758;39.572;2.652;2023-09-12T03:59:06;22.77;78.28
68450;SHT30;67758;39.572;2.652;2023-09-12T04:01:32;22.81;78.18
68450;SHT30;67758;39.572;2.652;2023-09-12T04:03:58;22.85;77.92
68450;SHT30;67758;39.572;2.652;2023-09-12T04:06:23;22.87;77.89
68450;SHT30;67758;39.572;2.652;2023-09-12T04:08:49;22.91;78.01
68450;SHT30;67758;39.572;2.652;2023-09-12T04:11:15;22.90;78.10
68450;SHT30;67758;39.572;2.652;2023-09-12T04:13:40;22.94;78.07
68450;SHT30;67758;39.572;2.652;2023-09-12T04:16:06;22.95;78.08
68450;SHT30;67758;39.572;2.652;2023-09-12T04:18:39;22.96;78.20
68450;SHT30;67758;39.572;2.652;2023-09-12T04:21:05;22.96;78.22
68450;SHT30;67758;39.572;2.652;2023-09-12T04:23:31;22.94;78.31
68450;SHT30;67758;39.572;2.652;2023-09-12T04:25:57;22.95;78.30
68450;SHT30;67758;39.572;2.652;2023-09-12T04:28:25;22.95;78.33
68450;SHT30;67758;39.572;2.652;2023-09-12T04:30:52;22.92;78.68
68450;SHT30;67758;39.572;2.652;2023-09-12T04:33:17;22.92;78.91
68450;SHT30;67758;39.572;2.652;2023-09-12T04:35:43;22.98;79.23
68450;SHT30;67758;39.572;2.652;2023-09-12T04:38:08;23.01;79.35
68450;SHT30;67758;39.572;2.652;2023-09-12T04:40:34;23.01;79.44
68450;SHT30;67758;39.572;2.652;2023-09-12T04:42:59;23.02;79.43
68450;SHT30;67758;39.572;2.652;2023-09-12T04:45:25;23.02;79.49
68450;SHT30;67758;39.572;2.652;2023-09-12T04:47:51;22.99;79.55
68450;SHT30;67758;39.572;2.652;2023-09-12T04:50:16;23.01;79.83
68450;SHT30;67758;39.572;2.652;2023-09-12T04:52:42;22.96;79.89
68450;SHT30;67758;39.572;2.652;2023-09-12T04:55:08;22.92;80.10
68450;SHT30;67758;39.572;2.652;2023-09-12T04:57:33;22.91;80.13
68450;SHT30;67758;39.572;2.652;2023-09-12T04:59:59;22.90;80.34
68450;SHT30;67758;39.572;2.652;2023-09-12T05:02:25;22.90;80.21
68450;SHT30;67758;39.572;2.652;2023-09-12T05:04:51;22.91;80.24
68450;SHT30;67758;39.572;2.652;2023-09-12T05:07:17;22.96;80.13
68450;SHT30;67758;39.572;2.652;2023-09-12T05:09:42;22.98;80.11
68450;SHT30;67758;39.572;2.652;2023-09-12T05:12:08;22.96;80.14
68450;SHT30;67758;39.572;2.652;2023-09-12T05:14:34;22.98;80.20
68450;SHT30;67758;39.572;2.652;2023-09-12T05:16:59;22.98;80.15
68450;SHT30;67758;39.572;2.652;2023-09-12T05:19:27;22.96;80.23
68450;SHT30;67758;39.572;2.652;2023-09-12T05:21:52;22.95;80.32
68450;SHT30;67758;39.572;2.652;2023-09-12T05:24:18;22.94;80.52
68450;SHT30;67758;39.572;2.652;2023-09-12T05:26:44;22.94;80.63
68450;SHT30;67758;39.572;2.652;2023-09-12T05:29:09;22.96;80.49
68450;SHT30;67758;39.572;2.652;2023-09-12T05:31:35;23.01;80.33
68450;SHT30;67758;39.572;2.652;2023-09-12T05:34:00;22.96;80.45
68450;SHT30;67758;39.572;2.652;2023-09-12T05:36:26;22.95;80.51
68450;SHT30;67758;39.572;2.652;2023-09-12T05:38:51;22.96;80.63
68450;SHT30;67758;39.572;2.652;2023-09-12T05:41:17;22.94;80.76
68450;SHT30;67758;39.572;2.652;2023-09-12T05:43:43;22.96;80.70
68450;SHT30;67758;39.572;2.652;2023-09-12T05:46:08;22.98;80.59
68450;SHT30;67758;39.572;2.652;2023-09-12T05:48:34;22.96;80.64
68450;SHT30;67758;39.572;2.652;2023-09-12T05:51:00;23.02;80.68
68450;SHT30;67758;39.572;2.652;2023-09-12T05:53:27;23.06;80.52
68450;SHT30;67758;39.572;2.652;2023-09-12T05:55:52;23.08;80.50
68450;SHT30;67758;39.572;2.652;2023-09-12T05:58:18;23.08;80.40
68450;SHT30;67758;39.572;2.652;2023-09-12T06:00:44;23.11;80.41
68450;SHT30;67758;39.572;2.652;2023-09-12T06:03:14;23.14;80.39
68450;SHT30;67758;39.572;2.652;2023-09-12T06:05:40;23.15;80.43
68450;SHT30;67758;39.572;2.652;2023-09-12T06:08:05;23.12;80.52
68450;SHT30;67758;39.572;2.652;2023-09-12T06:10:31;23.16;80.62
68450;SHT30;67758;39.572;2.652;2023-09-12T06:12:57;23.22;80.65
68450;SHT30;67758;39.572;2.652;2023-09-12T06:15:23;23.32;80.33
68450;SHT30;67758;39.572;2.652;2023-09-12T06:17:48;23.36;80.44
68450;SHT30;67758;39.572;2.652;2023-09-12T06:20:14;23.39;80.33
68450;SHT30;67758;39.572;2.652;2023-09-12T06:22:40;23.39;80.55
68450;SHT30;67758;39.572;2.652;2023-09-12T06:25:06;23.39;80.76
68450;SHT30;67758;39.572;2.652;2023-09-12T06:27:32;23.41;80.67
68450;SHT30;67758;39.572;2.652;2023-09-12T06:29:57;23.50;80.51
68450;SHT30;67758;39.572;2.652;2023-09-12T06:32:23;23.59;80.18
68450;SHT30;67758;39.572;2.652;2023-09-12T06:34:48;23.56;80.36
68450;SHT30;67758;39.572;2.652;2023-09-12T06:37:14;23.52;80.44
68450;SHT30;67758;39.572;2.652;2023-09-12T06:39:39;23.67;80.33
68450;SHT30;67758;39.572;2.652;2023-09-12T06:42:06;23.66;80.47
68450;SHT30;67758;39.572;2.652;2023-09-12T06:44:31;23.71;80.31
68450;SHT30;67758;39.572;2.652;2023-09-12T06:46:57;23.83;79.93
68450;SHT30;67758;39.572;2.652;2023-09-12T06:49:23;23.94;79.67
68450;SHT30;67758;39.572;2.652;2023-09-12T06:51:48;24.21;78.82
68450;SHT30;67758;39.572;2.652;2023-09-12T06:54:14;24.31;78.48
68450;SHT30;67758;39.572;2.652;2023-09-12T06:56:40;24.25;78.06
68450;SHT30;67758;39.572;2.652;2023-09-12T06:59:08;24.13;77.49
68450;SHT30;67758;39.572;2.652;2023-09-12T07:01:34;24.18;77.76
68450;SHT30;67758;39.572;2.652;2023-09-12T07:03:59;24.18;77.88
68450;SHT30;67758;39.572;2.652;2023-09-12T07:06:25;24.16;77.38
68450;SHT30;67758;39.572;2.652;2023-09-12T07:08:50;24.18;77.11
68450;SHT30;67758;39.572;2.652;2023-09-12T07:11:19;24.30;77.18
68450;SHT30;67758;39.572;2.652;2023-09-12T07:13:45;24.41;76.29
68450;SHT30;67758;39.572;2.652;2023-09-12T07:16:11;24.51;76.10
68450;SHT30;67758;39.572;2.652;2023-09-12T07:18:37;24.54;76.01
68450;SHT30;67758;39.572;2.652;2023-09-12T07:21:04;24.61;76.01
68450;SHT30;67758;39.572;2.652;2023-09-12T07:23:33;24.65;75.82
68450;SHT30;67758;39.572;2.652;2023-09-12T07:25:59;24.71;75.39
68450;SHT30;67758;39.572;2.652;2023-09-12T07:28:26;24.79;75.27
68450;SHT30;67758;39.572;2.652;2023-09-12T07:30:52;24.89;75.03
68450;SHT30;67758;39.572;2.652;2023-09-12T07:33:18;24.96;75.30
68450;SHT30;67758;39.572;2.652;2023-09-12T07:35:44;25.02;74.74
68450;SHT30;67758;39.572;2.652;2023-09-12T07:38:09;25.09;74.45
68450;SHT30;67758;39.572;2.652;2023-09-12T07:40:35;25.13;74.38
68450;SHT30;67758;39.572;2.652;2023-09-12T07:43:01;25.18;74.32
68450;SHT30;67758;39.572;2.652;2023-09-12T07:45:28;25.22;74.24
68450;SHT30;67758;39.572;2.652;2023-09-12T07:47:55;25.29;74.09
68450;SHT30;67758;39.572;2.652;2023-09-12T07:50:20;25.37;73.73
68450;SHT30;67758;39.572;2.652;2023-09-12T07:52:46;25.44;74.29
68450;SHT30;67758;39.572;2.652;2023-09-12T07:55:12;25.51;74.45
68450;SHT30;67758;39.572;2.652;2023-09-12T07:57:37;25.59;74.32
68450;SHT30;67758;39.572;2.652;2023-09-12T08:00:05;25.64;74.50
68450;SHT30;67758;39.572;2.652;2023-09-12T08:02:36;25.64;74.18
68450;SHT30;67758;39.572;2.652;2023-09-12T08:05:02;25.67;74.39
68450;SHT30;67758;39.572;2.652;2023-09-12T08:07:27;25.74;74.62
68450;SHT30;67758;39.572;2.652;2023-09-12T08:09:54;25.84;74.63
68450;SHT30;67758;39.572;2.652;2023-09-12T08:12:22;25.93;74.79
68450;SHT30;67758;39.572;2.652;2023-09-12T08:14:48;26.02;74.41
68450;SHT30;67758;39.572;2.652;2023-09-12T08:17:14;26.22;74.32
68450;SHT30;67758;39.572;2.652;2023-09-12T08:19:41;26.31;74.63
68450;SHT30;67758;39.572;2.652;2023-09-12T08:22:07;26.31;74.52
68450;SHT30;67758;39.572;2.652;2023-09-12T08:24:34;26.31;74.20
68450;SHT30;67758;39.572;2.652;2023-09-12T08:27:00;26.34;74.86
68450;SHT30;67758;39.572;2.652;2023-09-12T08:29:28;26.39;74.68
68450;SHT30;67758;39.572;2.652;2023-09-12T08:31:54;26.45;74.47
68450;SHT30;67758;39.572;2.652;2023-09-12T08:34:22;26.57;73.89
68450;SHT30;67758;39.572;2.652;2023-09-12T08:36:48;26.59;73.80
68450;SHT30;67758;39.572;2.652;2023-09-12T08:39:15;26.57;73.82
68450;SHT30;67758;39.572;2.652;2023-09-12T08:41:42;26.55;73.71
68450;SHT30;67758;39.572;2.652;2023-09-12T08:44:09;26.57;73.58
68450;SHT30;67758;39.572;2.652;2023-09-12T08:46:35;26.63;73.54
68450;SHT30;67758;39.572;2.652;2023-09-12T08:49:03;26.75;73.81
68450;SHT30;67758;39.572;2.652;2023-09-12T08:51:30;26.85;73.23
68450;SHT30;67758;39.572;2.652;2023-09-12T08:53:57;26.83;73.62
68450;SHT30;67758;39.572;2.652;2023-09-12T08:56:23;26.96;73.08
68450;SHT30;67758;39.572;2.652;2023-09-12T08:58:50;27.08;72.77
68450;SHT30;67758;39.572;2.652;2023-09-12T09:01:18;27.14;72.80
68450;SHT30;67758;39.572;2.652;2023-09-12T09:03:44;27.30;72.61
68450;SHT30;67758;39.572;2.652;2023-09-12T09:06:11;27.48;71.98
68450;SHT30;67758;39.572;2.652;2023-09-12T09:08:37;27.54;71.77
68450;SHT30;67758;39.572;2.652;2023-09-12T09:11:03;27.51;72.15
68450;SHT30;67758;39.572;2.652;2023-09-12T09:13:31;27.61;71.91
68450;SHT30;67758;39.572;2.652;2023-09-12T09:18:56;27.81;71.50
68450;SHT30;67758;39.572;2.652;2023-09-12T09:21:25;27.89;71.29
68450;SHT30;67758;39.572;2.652;2023-09-12T09:23:54;28.10;70.55
68450;SHT30;67758;39.572;2.652;2023-09-12T09:26:20;28.28;70.11
68450;SHT30;67758;39.572;2.652;2023-09-12T09:29:03;28.53;69.09
68450;SHT30;67758;39.572;2.652;2023-09-12T09:31:29;28.40;69.62
68450;SHT30;67758;39.572;2.652;2023-09-12T09:33:55;28.26;70.45
68450;SHT30;67758;39.572;2.652;2023-09-12T09:36:21;28.35;69.84
68450;SHT30;67758;39.572;2.652;2023-09-12T09:38:46;28.47;68.93
68450;SHT30;67758;39.572;2.652;2023-09-12T09:41:12;28.52;68.98
68450;SHT30;67758;39.572;2.652;2023-09-12T09:43:38;28.69;68.64
68450;SHT30;67758;39.572;2.652;2023-09-12T09:46:03;28.98;67.79
68450;SHT30;67758;39.572;2.652;2023-09-12T09:48:29;29.18;67.05
68450;SHT30;67758;39.572;2.652;2023-09-12T09:51:02;29.48;65.93
68450;SHT30;67758;39.572;2.652;2023-09-12T09:53:31;29.31;66.49
68450;SHT30;67758;39.572;2.652;2023-09-12T09:56:12;29.58;66.03
68450;SHT30;67758;39.572;2.652;2023-09-12T09:58:56;29.66;65.97
68450;SHT30;67758;39.572;2.652;2023-09-12T10:01:33;29.62;66.02
68450;SHT30;67758;39.572;2.652;2023-09-12T10:04:00;29.48;66.44
68450;SHT30;67758;39.572;2.652;2023-09-12T10:06:27;29.39;66.72
68450;SHT30;67758;39.572;2.652;2023-09-12T10:08:54;29.55;66.03
68450;SHT30;67758;39.572;2.652;2023-09-12T10:11:30;29.88;65.60
68450;SHT30;67758;39.572;2.652;2023-09-12T10:14:00;30.19;64.89
68450;SHT30;67758;39.572;2.652;2023-09-12T10:16:35;30.05;64.95
68450;SHT30;67758;39.572;2.652;2023-09-12T10:19:24;29.68;65.78
68450;SHT30;67758;39.572;2.652;2023-09-12T10:21:59;29.88;65.40
68450;SHT30;67758;39.572;2.652;2023-09-12T10:24:27;30.08;65.16
68450;SHT30;67758;39.572;2.652;2023-09-12T10:26:54;30.09;64.58
68450;SHT30;67758;39.572;2.652;2023-09-12T10:29:21;30.13;64.50
68450;SHT30;67758;39.572;2.652;2023-09-12T10:31:48;29.81;65.50
68450;SHT30;67758;39.572;2.652;2023-09-12T10:34:14;30.56;64.23
68450;SHT30;67758;39.572;2.652;2023-09-12T10:36:41;31.86;60.81
68450;SHT30;67758;39.572;2.652;2023-09-12T10:39:09;32.58;59.06
68450;SHT30;67758;39.572;2.652;2023-09-12T10:41:38;33.21;57.44
68450;SHT30;67758;39.572;2.652;2023-09-12T10:44:10;33.73;55.76
68450;SHT30;67758;39.572;2.652;2023-09-12T10:46:40;33.77;55.63
68450;SHT30;67758;39.572;2.652;2023-09-12T10:49:07;33.72;56.02
68450;SHT30;67758;39.572;2.652;2023-09-12T10:51:37;33.85;55.55
68450;SHT30;67758;39.572;2.652;2023-09-12T10:54:04;34.51;53.87
68450;SHT30;67758;39.572;2.652;2023-09-12T10:56:30;34.44;52.62
68450;SHT30;67758;39.572;2.652;2023-09-12T11:01:33;34.52;52.20
68450;SHT30;67758;39.572;2.652;2023-09-12T11:06:47;35.13;51.36
68450;SHT30;67758;39.572;2.652;2023-09-12T11:11:39;34.03;53.48
68450;SHT30;67758;39.572;2.652;2023-09-12T11:14:06;33.85;54.29
68450;SHT30;67758;39.572;2.652;2023-09-12T11:16:32;33.41;55.07
68450;SHT30;67758;39.572;2.652;2023-09-12T11:19:14;33.59;54.44
68450;SHT30;67758;39.572;2.652;2023-09-12T11:21:44;34.04;53.79
68450;SHT30;67758;39.572;2.652;2023-09-12T11:24:10;34.24;53.92
68450;SHT30;67758;39.572;2.652;2023-09-12T11:26:58;34.27;54.74
68450;SHT30;67758;39.572;2.652;2023-09-12T11:29:34;34.34;54.37
68450;SHT30;67758;39.572;2.652;2023-09-12T11:32:01;34.34;54.73
68450;SHT30;67758;39.572;2.652;2023-09-12T11:34:30;34.51;54.55
68450;SHT30;67758;39.572;2.652;2023-09-12T11:37:01;34.69;54.94
68450;SHT30;67758;39.572;2.652;2023-09-12T11:39:33;34.98;54.10
68450;SHT30;67758;39.572;2.652;2023-09-12T11:42:00;34.61;54.84
68450;SHT30;67758;39.572;2.652;2023-09-12T11:44:27;34.81;54.55
68450;SHT30;67758;39.572;2.652;2023-09-12T11:46:53;34.45;55.49
68450;SHT30;67758;39.572;2.652;2023-09-12T11:49:20;34.59;55.21
68450;SHT30;67758;39.572;2.652;2023-09-12T11:51:51;34.40;55.75
68450;SHT30;67758;39.572;2.652;2023-09-12T11:54:24;34.10;56.27
68450;SHT30;67758;39.572;2.652;2023-09-12T11:56:51;34.34;55.94
68450;SHT30;67758;39.572;2.652;2023-09-12T11:59:26;34.52;56.04
68450;SHT30;67758;39.572;2.652;2023-09-12T12:01:54;32.70;60.39
68450;SHT30;67758;39.572;2.652;2023-09-12T12:04:21;34.11;56.42
68450;SHT30;67758;39.572;2.652;2023-09-12T12:06:49;34.44;55.74
68450;SHT30;67758;39.572;2.652;2023-09-12T12:09:16;34.34;55.50
68450;SHT30;67758;39.572;2.652;2023-09-12T12:11:44;34.28;55.65
68450;SHT30;67758;39.572;2.652;2023-09-12T12:14:15;33.30;58.44
68450;SHT30;67758;39.572;2.652;2023-09-12T12:16:43;33.16;57.80
68450;SHT30;67758;39.572;2.652;2023-09-12T12:19:14;32.64;59.76
68450;SHT30;67758;39.572;2.652;2023-09-12T12:21:46;32.50;60.09
68450;SHT30;67758;39.572;2.652;2023-09-12T12:24:14;33.74;55.14
68450;SHT30;67758;39.572;2.652;2023-09-12T12:26:43;33.60;56.18
68450;SHT30;67758;39.572;2.652;2023-09-12T12:29:10;33.59;56.63
68450;SHT30;67758;39.572;2.652;2023-09-12T12:31:37;31.85;61.14
68450;SHT30;67758;39.572;2.652;2023-09-12T12:34:04;32.94;59.95
68450;SHT30;67758;39.572;2.652;2023-09-12T12:36:31;33.02;59.34
68450;SHT30;67758;39.572;2.652;2023-09-12T12:38:57;33.04;58.98
68450;SHT30;67758;39.572;2.652;2023-09-12T12:41:25;32.88;60.45
68450;SHT30;67758;39.572;2.652;2023-09-12T12:43:52;33.09;59.99
68450;SHT30;67758;39.572;2.652;2023-09-12T12:46:18;32.43;61.86
68450;SHT30;67758;39.572;2.652;2023-09-12T12:48:53;32.31;62.38
68450;SHT30;67758;39.572;2.652;2023-09-12T12:51:25;32.24;62.59
68450;SHT30;67758;39.572;2.652;2023-09-12T12:53:53;32.82;61.22
68450;SHT30;67758;39.572;2.652;2023-09-12T12:56:27;31.86;63.30
68450;SHT30;67758;39.572;2.652;2023-09-12T12:58:58;30.96;65.34
68450;SHT30;67758;39.572;2.652;2023-09-12T13:01:24;30.20;68.13
68450;SHT30;67758;39.572;2.652;2023-09-12T13:03:50;30.12;68.67
68450;SHT30;67758;39.572;2.652;2023-09-12T13:06:17;29.96;68.38
68450;SHT30;67758;39.572;2.652;2023-09-12T13:08:44;29.66;69.54
68450;SHT30;67758;39.572;2.652;2023-09-12T13:11:11;29.72;69.27
68450;SHT30;67758;39.572;2.652;2023-09-12T13:13:38;29.95;68.59
68450;SHT30;67758;39.572;2.652;2023-09-12T13:16:04;29.73;69.05
68450;SHT30;67758;39.572;2.652;2023-09-12T13:18:32;29.63;69.02
68450;SHT30;67758;39.572;2.652;2023-09-12T13:20:58;29.61;68.84
68450;SHT30;67758;39.572;2.652;2023-09-12T13:23:24;31.14;64.75
68450;SHT30;67758;39.572;2.652;2023-09-12T13:25:50;32.16;62.26
68450;SHT30;67758;39.572;2.652;2023-09-12T13:28:17;32.48;60.35
68450;SHT30;67758;39.572;2.652;2023-09-12T13:30:43;32.43;61.58
68450;SHT30;67758;39.572;2.652;2023-09-12T13:33:10;32.70;59.93
68450;SHT30;67758;39.572;2.652;2023-09-12T13:35:37;32.58;60.57
68450;SHT30;67758;39.572;2.652;2023-09-12T13:38:03;32.61;60.05
68450;SHT30;67758;39.572;2.652;2023-09-12T13:40:41;32.85;60.06
68450;SHT30;67758;39.572;2.652;2023-09-12T13:43:07;31.69;62.71
68450;SHT30;67758;39.572;2.652;2023-09-12T13:45:34;30.74;64.32
68450;SHT30;67758;39.572;2.652;2023-09-12T13:48:00;30.17;66.07
68450;SHT30;67758;39.572;2.652;2023-09-12T13:50:26;29.68;67.64
68450;SHT30;67758;39.572;2.652;2023-09-12T13:52:57;29.47;68.71
68450;SHT30;67758;39.572;2.652;2023-09-12T13:55:22;30.10;66.96
68450;SHT30;67758;39.572;2.652;2023-09-12T13:57:48;30.78;65.33
68450;SHT30;67758;39.572;2.652;2023-09-12T14:00:14;31.65;62.74
68450;SHT30;67758;39.572;2.652;2023-09-12T14:02:40;31.35;64.33
68450;SHT30;67758;39.572;2.652;2023-09-12T14:05:06;30.00;67.72
68450;SHT30;67758;39.572;2.652;2023-09-12T14:07:32;29.03;69.79
68450;SHT30;67758;39.572;2.652;2023-09-12T14:09:58;28.80;71.27
68450;SHT30;67758;39.572;2.652;2023-09-12T14:12:24;28.64;72.12
68450;SHT30;67758;39.572;2.652;2023-09-12T14:14:51;28.53;72.04
68450;SHT30;67758;39.572;2.652;2023-09-12T14:17:17;28.32;72.57
68450;SHT30;67758;39.572;2.652;2023-09-12T14:19:43;28.04;72.85
68450;SHT30;67758;39.572;2.652;2023-09-12T14:22:09;27.92;73.57
68450;SHT30;67758;39.572;2.652;2023-09-12T14:24:37;27.74;73.42
68450;SHT30;67758;39.572;2.652;2023-09-12T14:27:04;27.74;73.42
68450;SHT30;67758;39.572;2.652;2023-09-12T14:29:30;27.68;73.88
68450;SHT30;67758;39.572;2.652;2023-09-12T14:31:56;27.68;73.85
68450;SHT30;67758;39.572;2.652;2023-09-12T14:34:26;27.68;74.61
68450;SHT30;67758;39.572;2.652;2023-09-12T14:36:57;27.77;74.77
68450;SHT30;67758;39.572;2.652;2023-09-12T14:39:23;27.69;75.77
68450;SHT30;67758;39.572;2.652;2023-09-12T14:41:49;27.46;77.46
68450;SHT30;67758;39.572;2.652;2023-09-12T14:44:21;27.22;78.65
68450;SHT30;67758;39.572;2.652;2023-09-12T14:46:47;27.13;79.17
68450;SHT30;67758;39.572;2.652;2023-09-12T14:49:12;26.99;79.68
68450;SHT30;67758;39.572;2.652;2023-09-12T14:51:38;26.85;79.01
68450;SHT30;67758;39.572;2.652;2023-09-12T14:54:04;27.34;77.80
68450;SHT30;67758;39.572;2.652;2023-09-12T14:56:31;28.39;74.00
68450;SHT30;67758;39.572;2.652;2023-09-12T14:58:57;28.38;72.54
68450;SHT30;67758;39.572;2.652;2023-09-12T15:01:23;27.88;73.49
68450;SHT30;67758;39.572;2.652;2023-09-12T15:03:53;27.65;74.47
68450;SHT30;67758;39.572;2.652;2023-09-12T15:10:06;27.72;73.91
68450;SHT30;67758;39.572;2.652;2023-09-12T15:12:37;27.65;73.80
68450;SHT30;67758;39.572;2.652;2023-09-12T15:17:59;27.53;74.69
68450;SHT30;67758;39.572;2.652;2023-09-12T15:25:28;28.84;71.78
68450;SHT30;67758;39.572;2.652;2023-09-12T16:26:25;28.13;72.71
68450;SHT30;67758;39.572;2.652;2023-09-12T16:33:52;28.06;72.47
68450;SHT30;67758;39.572;2.652;2023-09-12T16:37:36;28.10;71.77
68450;SHT30;67758;39.572;2.652;2023-09-12T16:40:56;28.23;72.45
68450;SHT30;67758;39.572;2.652;2023-09-12T16:43:29;28.36;74.73
68450;SHT30;67758;39.572;2.652;2023-09-12T16:45:57;28.45;74.87
68450;SHT30;67758;39.572;2.652;2023-09-12T16:48:44;28.13;76.30
68450;SHT30;67758;39.572;2.652;2023-09-12T17:03:06;27.74;77.42
68450;SHT30;67758;39.572;2.652;2023-09-12T17:10:42;27.72;77.06
68450;SHT30;67758;39.572;2.652;2023-09-12T18:01:18;26.78;80.35
68450;SHT30;67758;39.572;2.652;2023-09-12T18:04:06;26.79;80.40
68450;SHT30;67758;39.572;2.652;2023-09-12T18:06:35;26.73;80.74
68450;SHT30;67758;39.572;2.652;2023-09-12T18:09:10;26.62;81.10